createdAt,value
2022-08-20T05:22:02.100Z,20.36
2022-08-20T05:25:11.791Z,20.30
2022-08-20T05:28:24.708Z,20.16
2022-08-20T05:31:33.714Z,20.10
2022-08-20T05:34:41.886Z,20.00
2022-08-20T05:37:50.112Z,19.90
2022-08-20T05:40:58.392Z,19.84
2022-08-20T05:44:10.215Z,19.80
2022-08-20T05:47:19.339Z,19.80
2022-08-20T05:50:30.140Z,19.80
2022-08-20T05:53:38.615Z,19.80
2022-08-20T05:56:47.002Z,19.88
2022-08-20T05:59:56.052Z,19.90
2022-08-20T06:03:22.177Z,19.90
2022-08-20T06:06:45.749Z,20.00
2022-08-20T06:09:55.140Z,20.00
2022-08-20T06:13:03.564Z,20.04
2022-08-20T06:16:11.543Z,20.10
2022-08-20T06:19:25.004Z,20.10
2022-08-20T06:22:34.630Z,20.16
2022-08-20T06:25:43.333Z,20.20
2022-08-20T06:28:51.230Z,20.20
2022-08-20T06:32:02.863Z,20.24
2022-08-20T06:35:18.046Z,20.30
2022-08-20T06:38:27.968Z,20.34
2022-08-20T06:41:37.943Z,20.40
2022-08-20T06:44:50.274Z,20.40
2022-08-20T06:48:01.425Z,20.40
2022-08-20T06:51:10.446Z,20.40
2022-08-20T06:54:18.260Z,20.40
2022-08-20T06:57:26.715Z,20.40
2022-08-20T07:00:37.633Z,20.40
2022-08-20T07:03:55.097Z,20.50
2022-08-20T07:07:04.477Z,20.60
2022-08-20T07:10:18.374Z,20.66
2022-08-20T07:13:26.357Z,20.70
2022-08-20T07:16:35.615Z,20.70
2022-08-20T07:19:43.747Z,20.70
2022-08-20T07:22:52.703Z,20.70
2022-08-20T07:26:00.815Z,20.70
2022-08-20T07:29:09.051Z,20.70
2022-08-20T07:32:36.917Z,20.70
2022-08-20T07:35:49.173Z,20.68
2022-08-20T07:38:57.729Z,20.60
2022-08-20T07:42:07.992Z,20.60
2022-08-20T07:45:18.809Z,20.60
2022-08-20T07:48:32.050Z,20.60
2022-08-20T07:51:40.607Z,20.50
2022-08-20T07:54:48.621Z,20.40
2022-08-20T07:57:56.574Z,20.40
2022-08-20T08:01:05.322Z,20.30
2022-08-20T08:04:13.472Z,20.30
2022-08-20T08:07:22.384Z,20.30
2022-08-20T08:10:30.724Z,20.24
2022-08-20T08:13:42.603Z,20.20
2022-08-20T08:16:51.127Z,20.20
2022-08-20T08:19:59.641Z,20.20
2022-08-20T08:23:07.978Z,20.20
2022-08-20T08:26:22.552Z,20.20
2022-08-20T08:29:30.584Z,20.20
2022-08-20T08:32:59.997Z,20.10
2022-08-20T08:36:09.831Z,20.10
2022-08-20T08:39:18.107Z,20.08
2022-08-20T08:42:40.053Z,20.00
2022-08-20T08:46:02.421Z,20.00
2022-08-20T08:49:14.717Z,20.00
2022-08-20T08:52:27.913Z,19.90
2022-08-20T08:55:36.225Z,19.90
2022-08-20T08:58:45.380Z,19.80
2022-08-20T09:01:57.602Z,19.80
2022-08-20T09:05:17.687Z,19.70
2022-08-20T09:08:31.677Z,19.70
2022-08-20T09:11:54.127Z,19.70
2022-08-20T09:15:02.077Z,19.64
2022-08-20T09:18:10.323Z,19.60
2022-08-20T09:21:18.710Z,19.60
2022-08-20T09:24:26.695Z,19.60
2022-08-20T09:27:34.659Z,19.50
2022-08-20T09:30:44.493Z,19.50
2022-08-20T09:33:55.017Z,19.50
2022-08-20T09:37:03.211Z,19.50
2022-08-20T09:40:14.820Z,19.50
2022-08-20T09:43:31.340Z,19.50
2022-08-20T09:46:39.647Z,19.50
2022-08-20T09:49:48.227Z,19.44
2022-08-20T09:52:59.143Z,19.40
2022-08-20T09:56:10.050Z,19.24
2022-08-20T09:59:19.105Z,19.20
2022-08-20T10:02:27.299Z,19.10
2022-08-20T10:05:35.439Z,19.10
2022-08-20T10:08:43.507Z,19.00
2022-08-20T10:11:51.514Z,18.90
2022-08-20T10:14:59.619Z,18.88
2022-08-20T10:18:09.306Z,18.80
2022-08-20T10:21:20.933Z,18.80
2022-08-20T10:24:29.716Z,18.80
2022-08-20T10:27:38.396Z,18.80
2022-08-20T10:30:49.554Z,18.80
2022-08-20T10:33:58.096Z,18.88
2022-08-20T10:51:42.121Z,19.54
2022-08-20T10:54:50.672Z,19.70
2022-08-20T10:57:58.738Z,19.70
2022-08-20T11:01:06.752Z,19.84
2022-08-20T11:04:14.688Z,20.00
2022-08-20T11:07:55.439Z,20.10
2022-08-20T11:11:01.227Z,20.20
2022-08-20T11:14:09.363Z,20.20
2022-08-20T11:17:22.468Z,20.28
2022-08-20T11:20:32.250Z,20.30
2022-08-20T11:23:38.495Z,20.36
2022-08-20T11:26:48.302Z,20.40
2022-08-20T11:29:57.284Z,20.40
2022-08-20T11:33:06.085Z,20.48
2022-08-20T11:36:14.409Z,20.50
2022-08-20T11:39:22.369Z,20.60
2022-08-20T11:42:31.121Z,21.12
2022-08-20T11:45:39.420Z,21.66
2022-08-20T11:48:47.259Z,22.10
2022-08-20T11:51:58.521Z,22.50
2022-08-20T11:55:09.454Z,22.70
2022-08-20T11:58:17.427Z,22.90
2022-08-20T12:01:25.332Z,23.00
2022-08-20T12:04:35.009Z,23.00
2022-08-20T12:07:46.949Z,22.88
2022-08-20T12:10:54.789Z,22.72
2022-08-20T12:14:02.948Z,22.54
2022-08-20T12:17:18.155Z,22.40
2022-08-20T12:20:26.560Z,22.30
2022-08-20T12:23:34.544Z,22.20
2022-08-20T12:26:42.479Z,22.10
2022-08-20T12:29:53.409Z,22.10
2022-08-20T12:33:01.857Z,22.10
2022-08-20T12:36:11.153Z,22.10
2022-08-20T12:39:19.237Z,22.00
2022-08-20T12:42:29.352Z,22.00
2022-08-20T12:45:38.919Z,22.00
2022-08-20T12:48:46.933Z,22.00
2022-08-20T12:51:54.733Z,22.00
2022-08-20T12:58:38.622Z,22.00
2022-08-20T13:01:55.509Z,22.00
2022-08-20T13:05:04.642Z,21.98
2022-08-20T13:08:15.223Z,21.90
2022-08-20T13:11:23.155Z,21.90
2022-08-20T13:14:31.366Z,21.90
2022-08-20T13:17:39.690Z,21.90
2022-08-20T13:20:48.332Z,21.80
2022-08-20T13:23:56.559Z,21.80
2022-08-20T13:27:13.241Z,21.80
2022-08-20T13:30:24.361Z,21.80
2022-08-20T13:33:32.670Z,21.80
2022-08-20T13:36:41.005Z,21.72
2022-08-20T13:39:49.867Z,21.70
2022-08-20T13:42:58.153Z,21.70
2022-08-20T13:46:06.694Z,21.70
2022-08-20T13:49:14.656Z,21.70
2022-08-20T13:52:22.724Z,21.70
2022-08-20T13:55:32.946Z,21.70
2022-08-20T13:58:42.313Z,21.74
2022-08-20T14:01:50.092Z,21.80
2022-08-20T14:04:58.749Z,21.80
2022-08-20T14:08:15.135Z,21.80
2022-08-20T14:11:23.599Z,21.80
2022-08-20T14:14:31.650Z,21.80
2022-08-20T14:17:42.899Z,21.76
2022-08-20T14:20:51.436Z,21.70
2022-08-20T14:24:02.069Z,21.70
2022-08-20T14:27:11.004Z,21.70
2022-08-20T14:30:23.009Z,21.70
2022-08-20T14:33:30.745Z,21.70
2022-08-20T14:36:38.972Z,21.70
2022-08-20T14:39:49.083Z,21.60
2022-08-20T14:42:59.599Z,21.60
2022-08-20T14:46:08.830Z,21.60
2022-08-20T14:49:15.486Z,21.70
2022-08-20T14:52:27.673Z,21.70
2022-08-20T14:55:39.509Z,21.70
2022-08-20T14:58:47.454Z,21.70
2022-08-20T15:01:56.335Z,21.70
2022-08-20T15:05:07.056Z,21.70
2022-08-20T15:08:15.963Z,21.64
2022-08-20T15:11:23.829Z,21.60
2022-08-20T15:18:45.050Z,21.60
2022-08-20T15:25:03.179Z,21.60
2022-08-20T15:28:12.712Z,21.60
2022-08-20T15:31:19.732Z,21.60
2022-08-20T15:34:27.543Z,21.60
2022-08-20T15:37:35.643Z,21.60
2022-08-20T15:40:43.466Z,21.50
2022-08-20T15:43:51.606Z,21.50
2022-08-20T15:47:13.392Z,21.50
2022-08-20T15:50:35.720Z,21.40
2022-08-20T15:53:55.220Z,21.40
2022-08-20T15:57:08.997Z,21.40
2022-08-20T16:00:21.999Z,21.30
2022-08-20T16:03:58.062Z,21.30
2022-08-20T16:07:19.972Z,21.30
2022-08-20T16:10:41.189Z,21.24
2022-08-20T16:13:57.442Z,21.20
2022-08-20T16:17:12.807Z,21.20
2022-08-20T16:20:32.972Z,21.18
2022-08-20T16:23:46.945Z,21.10
2022-08-20T16:27:14.133Z,21.10
2022-08-20T16:30:32.393Z,21.10
2022-08-20T16:33:54.098Z,21.10
2022-08-20T16:37:22.533Z,21.10
2022-08-20T16:40:35.677Z,21.10
2022-08-20T16:43:55.091Z,21.10
2022-08-20T16:47:13.770Z,21.10
2022-08-20T16:50:28.903Z,21.10
2022-08-20T16:53:38.313Z,21.10
2022-08-20T16:56:49.694Z,21.10
2022-08-20T17:00:13.426Z,21.10
2022-08-20T17:03:40.202Z,21.10
2022-08-20T17:06:53.409Z,21.08
2022-08-20T17:10:21.621Z,21.10
2022-08-20T17:13:35.054Z,21.10
2022-08-20T17:16:48.490Z,21.10
2022-08-20T17:20:07.339Z,21.04
2022-08-20T17:23:18.775Z,21.00
2022-08-20T17:26:35.388Z,21.00
2022-08-20T17:29:58.052Z,21.00
2022-08-20T17:33:09.914Z,21.00
2022-08-20T17:36:26.782Z,20.90
2022-08-20T17:39:35.073Z,20.90
2022-08-20T17:42:57.051Z,20.90
2022-08-20T17:46:12.067Z,20.80
2022-08-20T17:49:34.411Z,20.80
2022-08-20T17:52:48.352Z,20.80
2022-08-20T17:56:02.592Z,20.70
2022-08-20T17:59:23.985Z,20.70
2022-08-20T18:02:45.099Z,20.70
2022-08-20T18:06:03.479Z,20.60
2022-08-20T18:09:24.435Z,20.60
2022-08-20T18:12:41.921Z,20.52
2022-08-20T18:16:01.855Z,20.50
2022-08-20T18:19:24.040Z,20.40
2022-08-20T18:22:36.815Z,20.40
2022-08-20T18:25:51.860Z,20.30
2022-08-20T18:29:11.294Z,20.30
2022-08-20T18:32:40.565Z,20.30
2022-08-20T18:35:48.721Z,20.24
2022-08-20T18:39:07.050Z,20.20
2022-08-20T18:42:31.180Z,20.14
2022-08-20T18:45:40.785Z,20.10
2022-08-20T18:49:03.201Z,20.02
2022-08-20T18:52:20.142Z,20.00
2022-08-20T18:55:38.791Z,20.00
2022-08-20T18:59:01.815Z,20.00
2022-08-20T19:02:28.037Z,19.90
2022-08-20T19:05:51.626Z,19.90
2022-08-20T19:09:11.378Z,19.84
2022-08-20T19:13:15.490Z,19.80
2022-08-20T19:16:34.181Z,19.76
2022-08-20T19:19:43.075Z,19.70
2022-08-20T19:22:54.079Z,19.70
2022-08-20T19:26:12.468Z,19.62
2022-08-20T19:29:38.886Z,19.60
2022-08-20T19:32:55.511Z,19.60
2022-08-20T19:36:17.727Z,19.50
2022-08-20T19:39:31.124Z,19.50
2022-08-20T19:42:46.495Z,19.50
2022-08-20T19:45:58.063Z,19.50
2022-08-20T19:49:30.602Z,19.48
2022-08-20T19:52:51.749Z,19.40
2022-08-20T19:56:06.862Z,19.40
2022-08-20T19:59:23.317Z,19.38
2022-08-20T20:02:35.218Z,19.30
2022-08-20T20:05:56.038Z,19.30
2022-08-20T20:09:09.129Z,19.30
2022-08-20T20:12:23.082Z,19.34
2022-08-20T20:15:32.386Z,19.38
2022-08-20T20:18:44.574Z,19.40
2022-08-20T20:22:19.181Z,19.40
2022-08-20T20:25:45.238Z,19.40
2022-08-20T20:29:03.555Z,19.30
2022-08-20T20:32:22.958Z,19.30
2022-08-20T20:35:35.609Z,19.30
2022-08-20T20:38:56.431Z,19.20
2022-08-20T20:42:09.581Z,19.20
2022-08-20T20:45:22.565Z,19.20
2022-08-20T20:48:43.997Z,19.10
2022-08-20T20:52:04.118Z,19.10
2022-08-20T20:55:24.259Z,19.08
2022-08-20T20:58:32.584Z,19.00
2022-08-20T21:01:49.254Z,19.00
2022-08-20T21:04:58.429Z,19.00
2022-08-20T21:08:09.941Z,19.00
2022-08-20T21:11:17.930Z,18.94
2022-08-20T21:14:28.587Z,18.90
2022-08-20T21:17:36.805Z,18.90
2022-08-20T21:20:45.987Z,18.90
2022-08-20T21:23:56.136Z,18.86
2022-08-20T21:27:04.534Z,18.80
2022-08-20T21:30:14.606Z,18.80
2022-08-20T21:33:23.096Z,18.80
2022-08-20T21:36:31.386Z,18.74
2022-08-20T21:39:39.822Z,18.72
2022-08-20T21:42:47.821Z,18.70
2022-08-20T21:45:56.938Z,18.70
2022-08-20T21:49:05.427Z,18.70
2022-08-20T21:52:13.438Z,18.70
2022-08-20T21:55:21.565Z,18.70
2022-08-20T21:58:29.565Z,18.70
2022-08-20T22:01:38.644Z,18.60
2022-08-20T22:04:47.427Z,18.60
2022-08-20T22:07:55.366Z,18.60
2022-08-20T22:11:04.364Z,18.60
2022-08-20T22:14:16.843Z,18.60
2022-08-20T22:17:25.387Z,18.60
2022-08-20T22:20:33.802Z,18.60
2022-08-20T22:23:41.950Z,18.54
2022-08-20T22:26:49.754Z,18.50
2022-08-20T22:29:57.770Z,18.50
2022-08-20T22:33:14.477Z,18.50
2022-08-20T22:36:24.299Z,18.50
2022-08-20T22:39:32.754Z,18.48
2022-08-20T22:42:41.160Z,18.42
2022-08-20T22:45:53.642Z,18.44
2022-08-20T22:49:02.160Z,18.40
2022-08-20T22:52:12.276Z,18.40
2022-08-20T22:55:20.574Z,18.40
2022-08-20T22:58:31.185Z,18.40
2022-08-20T23:01:39.909Z,18.40
2022-08-20T23:04:48.271Z,18.40
2022-08-20T23:08:01.773Z,18.40
2022-08-20T23:11:10.561Z,18.40
2022-08-20T23:14:23.819Z,18.40
2022-08-20T23:17:35.911Z,18.40
2022-08-20T23:20:46.912Z,18.40
2022-08-20T23:23:54.688Z,18.30
2022-08-20T23:27:02.962Z,18.30
2022-08-20T23:30:13.273Z,18.30
2022-08-20T23:33:21.952Z,18.30
2022-08-20T23:36:30.196Z,18.30
2022-08-20T23:39:38.711Z,18.20
2022-08-20T23:42:46.592Z,18.20
2022-08-20T23:46:04.289Z,18.20
2022-08-20T23:49:12.782Z,18.20
2022-08-20T23:52:21.166Z,18.10
2022-08-20T23:55:29.437Z,18.10
2022-08-20T23:58:38.769Z,18.10
